sensor_id;sensor_type;location;lat;lon;timestamp;pressure;altitude;pressure_sealevel;temperature;humidity
64628;BME280;59036;50.960;0.314;2022-09-09T00:00:27;98653.91;;;12.31;91.93
64628;BME280;59036;50.960;0.314;2022-09-09T00:03:02;98661.82;;;12.43;91.50
64628;BME280;59036;50.960;0.314;2022-09-09T00:05:38;98644.71;;;13.36;88.05
64628;BME280;59036;50.960;0.314;2022-09-09T00:08:16;98636.66;;;13.31;87.09
64628;BME280;59036;50.960;0.314;2022-09-09T00:10:50;98636.39;;;13.66;86.10
64628;BME280;59036;50.960;0.314;2022-09-09T00:13:25;98633.78;;;14.24;82.40
64628;BME280;59036;50.960;0.314;2022-09-09T00:15:59;98628.51;;;14.05;82.62
64628;BME280;59036;50.960;0.314;2022-09-09T00:18:35;98621.00;;;13.71;83.33
64628;BME280;59036;50.960;0.314;2022-09-09T00:21:10;98621.13;;;14.42;81.90
64628;BME280;59036;50.960;0.314;2022-09-09T00:23:39;98632.66;;;14.73;79.81
64628;BME280;59036;50.960;0.314;2022-09-09T00:26:11;98638.24;;;15.02;78.84
64628;BME280;59036;50.960;0.314;2022-09-09T00:28:47;98630.23;;;14.16;81.46
64628;BME280;59036;50.960;0.314;2022-09-09T00:31:23;98622.90;;;13.86;82.23
64628;BME280;59036;50.960;0.314;2022-09-09T00:33:53;98634.67;;;13.03;85.95
64628;BME280;59036;50.960;0.314;2022-09-09T00:36:24;98630.96;;;12.93;85.86
64628;BME280;59036;50.960;0.314;2022-09-09T00:38:57;98635.30;;;12.53;88.21
64628;BME280;59036;50.960;0.314;2022-09-09T00:41:36;98623.34;;;12.52;88.49
64628;BME280;59036;50.960;0.314;2022-09-09T00:44:17;98618.86;;;12.58;87.98
64628;BME280;59036;50.960;0.314;2022-09-09T00:46:56;98625.17;;;12.25;88.37
64628;BME280;59036;50.960;0.314;2022-09-09T00:49:39;98618.30;;;13.22;83.99
64628;BME280;59036;50.960;0.314;2022-09-09T00:52:20;98627.90;;;13.09;84.36
64628;BME280;59036;50.960;0.314;2022-09-09T00:54:56;98630.74;;;13.64;83.03
64628;BME280;59036;50.960;0.314;2022-09-09T00:57:30;98622.74;;;12.47;85.63
64628;BME280;59036;50.960;0.314;2022-09-09T01:00:15;98623.97;;;13.22;83.41
64628;BME280;59036;50.960;0.314;2022-09-09T01:02:53;98618.86;;;13.56;82.74
64628;BME280;59036;50.960;0.314;2022-09-09T01:05:30;98605.79;;;14.48;78.39
64628;BME280;59036;50.960;0.314;2022-09-09T01:08:03;98602.42;;;14.16;79.07
64628;BME280;59036;50.960;0.314;2022-09-09T01:10:41;98602.55;;;13.66;79.79
64628;BME280;59036;50.960;0.314;2022-09-09T01:13:17;98598.08;;;13.50;80.30
64628;BME280;59036;50.960;0.314;2022-09-09T01:15:47;98587.51;;;13.91;78.81
64628;BME280;59036;50.960;0.314;2022-09-09T01:18:17;98584.93;;;13.67;78.99
64628;BME280;59036;50.960;0.314;2022-09-09T01:20:49;98587.35;;;13.01;82.08
64628;BME280;59036;50.960;0.314;2022-09-09T01:23:33;98591.69;;;14.17;78.86
64628;BME280;59036;50.960;0.314;2022-09-09T01:26:12;98592.51;;;14.31;77.82
64628;BME280;59036;50.960;0.314;2022-09-09T01:28:43;98585.81;;;13.92;79.84
64628;BME280;59036;50.960;0.314;2022-09-09T01:31:15;98585.69;;;14.24;77.81
64628;BME280;59036;50.960;0.314;2022-09-09T01:33:43;98582.98;;;15.06;75.00
64628;BME280;59036;50.960;0.314;2022-09-09T01:36:13;98583.68;;;15.01;75.28
64628;BME280;59036;50.960;0.314;2022-09-09T01:38:42;98591.57;;;15.03;75.58
64628;BME280;59036;50.960;0.314;2022-09-09T01:41:10;98590.90;;;14.69;76.76
64628;BME280;59036;50.960;0.314;2022-09-09T01:43:37;98585.23;;;14.79;76.83
64628;BME280;59036;50.960;0.314;2022-09-09T01:46:04;98573.42;;;14.78;75.63
64628;BME280;59036;50.960;0.314;2022-09-09T01:48:32;98568.37;;;15.03;75.22
64628;BME280;59036;50.960;0.314;2022-09-09T01:51:00;98558.89;;;13.98;76.49
64628;BME280;59036;50.960;0.314;2022-09-09T01:53:27;98552.19;;;14.06;77.76
64628;BME280;59036;50.960;0.314;2022-09-09T01:56:04;98549.79;;;13.99;78.55
64628;BME280;59036;50.960;0.314;2022-09-09T01:58:42;98549.34;;;13.83;77.74
64628;BME280;59036;50.960;0.314;2022-09-09T02:01:17;98553.31;;;12.68;82.33
64628;BME280;59036;50.960;0.314;2022-09-09T02:03:52;98551.85;;;13.32;79.46
64628;BME280;59036;50.960;0.314;2022-09-09T02:06:27;98557.75;;;13.10;79.49
64628;BME280;59036;50.960;0.314;2022-09-09T02:08:57;98561.58;;;13.05;81.17
64628;BME280;59036;50.960;0.314;2022-09-09T02:11:27;98565.65;;;14.06;76.86
64628;BME280;59036;50.960;0.314;2022-09-09T02:13:57;98562.18;;;14.58;74.78
64628;BME280;59036;50.960;0.314;2022-09-09T02:16:30;98559.98;;;14.69;75.14
64628;BME280;59036;50.960;0.314;2022-09-09T02:19:02;98561.45;;;14.98;72.59
64628;BME280;59036;50.960;0.314;2022-09-09T02:21:34;98555.21;;;13.47;78.39
64628;BME280;59036;50.960;0.314;2022-09-09T02:24:05;98556.35;;;14.55;75.24
64628;BME280;59036;50.960;0.314;2022-09-09T02:26:34;98555.80;;;14.23;74.53
64628;BME280;59036;50.960;0.314;2022-09-09T02:29:06;98557.23;;;13.96;75.28
64628;BME280;59036;50.960;0.314;2022-09-09T02:31:36;98562.54;;;12.89;78.86
64628;BME280;59036;50.960;0.314;2022-09-09T02:34:05;98567.57;;;12.74;81.51
64628;BME280;59036;50.960;0.314;2022-09-09T02:36:36;98566.17;;;12.46;83.35
64628;BME280;59036;50.960;0.314;2022-09-09T02:39:05;98571.29;;;12.77;81.93
64628;BME280;59036;50.960;0.314;2022-09-09T02:41:36;98574.63;;;12.75;82.08
64628;BME280;59036;50.960;0.314;2022-09-09T02:44:08;98576.41;;;12.97;80.06
64628;BME280;59036;50.960;0.314;2022-09-09T02:46:47;98579.89;;;13.32;77.87
64628;BME280;59036;50.960;0.314;2022-09-09T02:49:21;98585.46;;;13.42;78.63
64628;BME280;59036;50.960;0.314;2022-09-09T02:51:55;98583.35;;;13.49;78.35
64628;BME280;59036;50.960;0.314;2022-09-09T02:54:28;98585.69;;;13.75;77.76
64628;BME280;59036;50.960;0.314;2022-09-09T02:56:55;98589.58;;;12.75;80.09
64628;BME280;59036;50.960;0.314;2022-09-09T02:59:27;98591.87;;;12.04;83.46
64628;BME280;59036;50.960;0.314;2022-09-09T03:01:53;98593.24;;;12.31;82.55
64628;BME280;59036;50.960;0.314;2022-09-09T03:04:21;98595.08;;;12.09;84.21
64628;BME280;59036;50.960;0.314;2022-09-09T03:06:47;98598.99;;;12.40;83.41
64628;BME280;59036;50.960;0.314;2022-09-09T03:09:14;98596.65;;;13.55;79.12
64628;BME280;59036;50.960;0.314;2022-09-09T03:11:42;98597.01;;;13.79;78.44
64628;BME280;59036;50.960;0.314;2022-09-09T03:14:09;98595.98;;;12.63;81.62
64628;BME280;59036;50.960;0.314;2022-09-09T03:16:36;98595.37;;;13.40;81.00
64628;BME280;59036;50.960;0.314;2022-09-09T03:19:03;98600.98;;;12.48;82.70
64628;BME280;59036;50.960;0.314;2022-09-09T03:21:30;98595.31;;;13.46;79.62
64628;BME280;59036;50.960;0.314;2022-09-09T03:23:57;98591.24;;;12.47;82.76
64628;BME280;59036;50.960;0.314;2022-09-09T03:26:24;98593.45;;;13.91;79.02
64628;BME280;59036;50.960;0.314;2022-09-09T03:28:51;98592.16;;;12.85;82.54
64628;BME280;59036;50.960;0.314;2022-09-09T03:31:19;98591.77;;;13.50;80.62
64628;BME280;59036;50.960;0.314;2022-09-09T03:33:46;98597.07;;;12.63;82.85
64628;BME280;59036;50.960;0.314;2022-09-09T03:36:13;98597.12;;;13.02;80.95
64628;BME280;59036;50.960;0.314;2022-09-09T03:38:41;98596.95;;;12.56;83.69
64628;BME280;59036;50.960;0.314;2022-09-09T03:41:08;98595.46;;;12.78;82.67
64628;BME280;59036;50.960;0.314;2022-09-09T03:43:34;98596.23;;;13.22;80.41
64628;BME280;59036;50.960;0.314;2022-09-09T03:46:01;98601.40;;;12.19;85.11
64628;BME280;59036;50.960;0.314;2022-09-09T03:48:29;98609.59;;;11.89;86.46
64628;BME280;59036;50.960;0.314;2022-09-09T03:50:56;98619.25;;;12.25;86.81
64628;BME280;59036;50.960;0.314;2022-09-09T03:53:24;98619.42;;;12.78;84.43
64628;BME280;59036;50.960;0.314;2022-09-09T03:55:52;98624.69;;;12.87;82.44
64628;BME280;59036;50.960;0.314;2022-09-09T03:58:21;98629.70;;;12.73;84.59
64628;BME280;59036;50.960;0.314;2022-09-09T04:00:53;98631.29;;;12.27;85.99
64628;BME280;59036;50.960;0.314;2022-09-09T04:03:21;98630.78;;;11.95;87.59
64628;BME280;59036;50.960;0.314;2022-09-09T04:05:49;98626.85;;;12.79;83.83
64628;BME280;59036;50.960;0.314;2022-09-09T04:08:16;98626.61;;;12.87;84.05
64628;BME280;59036;50.960;0.314;2022-09-09T04:10:44;98623.59;;;12.21;85.54
64628;BME280;59036;50.960;0.314;2022-09-09T04:13:11;98624.01;;;12.25;85.34
64628;BME280;59036;50.960;0.314;2022-09-09T04:15:38;98629.73;;;11.81;88.33
64628;BME280;59036;50.960;0.314;2022-09-09T04:18:05;98627.51;;;12.71;85.62
64628;BME280;59036;50.960;0.314;2022-09-09T04:20:32;98632.40;;;12.43;86.60
64628;BME280;59036;50.960;0.314;2022-09-09T04:22:59;98637.16;;;12.23;86.45
64628;BME280;59036;50.960;0.314;2022-09-09T04:25:27;98636.59;;;12.44;86.56
64628;BME280;59036;50.960;0.314;2022-09-09T04:27:54;98636.53;;;12.50;85.55
64628;BME280;59036;50.960;0.314;2022-09-09T04:30:21;98639.55;;;12.30;87.14
64628;BME280;59036;50.960;0.314;2022-09-09T04:32:48;98641.13;;;11.64;89.32
64628;BME280;59036;50.960;0.314;2022-09-09T04:35:16;98641.16;;;11.77;89.63
64628;BME280;59036;50.960;0.314;2022-09-09T04:37:43;98646.77;;;12.03;86.74
64628;BME280;59036;50.960;0.314;2022-09-09T04:40:10;98645.67;;;12.39;85.87
64628;BME280;59036;50.960;0.314;2022-09-09T04:42:38;98647.18;;;12.24;85.91
64628;BME280;59036;50.960;0.314;2022-09-09T04:45:06;98650.53;;;12.03;88.06
64628;BME280;59036;50.960;0.314;2022-09-09T04:47:33;98651.92;;;11.65;88.54
64628;BME280;59036;50.960;0.314;2022-09-09T04:50:00;98656.78;;;11.99;88.62
64628;BME280;59036;50.960;0.314;2022-09-09T04:52:28;98655.54;;;11.65;89.36
64628;BME280;59036;50.960;0.314;2022-09-09T04:54:54;98651.87;;;12.14;89.46
64628;BME280;59036;50.960;0.314;2022-09-09T04:57:22;98655.66;;;11.92;89.33
64628;BME280;59036;50.960;0.314;2022-09-09T04:59:48;98658.00;;;12.19;87.35
64628;BME280;59036;50.960;0.314;2022-09-09T05:02:15;98660.43;;;11.86;88.26
64628;BME280;59036;50.960;0.314;2022-09-09T05:04:43;98664.08;;;11.69;90.10
64628;BME280;59036;50.960;0.314;2022-09-09T05:07:10;98665.76;;;11.94;88.26
64628;BME280;59036;50.960;0.314;2022-09-09T05:09:37;98669.34;;;11.67;89.38
64628;BME280;59036;50.960;0.314;2022-09-09T05:12:04;98676.52;;;11.70;89.87
64628;BME280;59036;50.960;0.314;2022-09-09T05:14:31;98679.32;;;11.60;91.30
64628;BME280;59036;50.960;0.314;2022-09-09T05:16:58;98673.13;;;11.85;89.09
64628;BME280;59036;50.960;0.314;2022-09-09T05:19:25;98677.05;;;11.78;89.87
64628;BME280;59036;50.960;0.314;2022-09-09T05:21:52;98676.86;;;11.98;88.86
64628;BME280;59036;50.960;0.314;2022-09-09T05:24:19;98677.32;;;12.38;86.44
64628;BME280;59036;50.960;0.314;2022-09-09T05:26:46;98681.42;;;11.91;87.99
64628;BME280;59036;50.960;0.314;2022-09-09T05:29:14;98684.55;;;12.39;87.24
64628;BME280;59036;50.960;0.314;2022-09-09T05:31:41;98683.18;;;11.95;88.04
64628;BME280;59036;50.960;0.314;2022-09-09T05:34:08;98682.26;;;12.48;86.24
64628;BME280;59036;50.960;0.314;2022-09-09T05:36:35;98683.40;;;12.68;85.13
64628;BME280;59036;50.960;0.314;2022-09-09T05:39:02;98681.11;;;11.87;88.24
64628;BME280;59036;50.960;0.314;2022-09-09T05:41:29;98683.45;;;11.93;88.61
64628;BME280;59036;50.960;0.314;2022-09-09T05:43:56;98684.58;;;12.30;88.07
64628;BME280;59036;50.960;0.314;2022-09-09T05:46:24;98691.61;;;12.08;87.76
64628;BME280;59036;50.960;0.314;2022-09-09T05:48:52;98693.48;;;12.42;87.11
64628;BME280;59036;50.960;0.314;2022-09-09T05:51:21;98699.68;;;12.49;87.25
64628;BME280;59036;50.960;0.314;2022-09-09T05:53:48;98711.23;;;11.78;88.42
64628;BME280;59036;50.960;0.314;2022-09-09T05:56:18;98707.27;;;11.88;88.21
64628;BME280;59036;50.960;0.314;2022-09-09T05:58:47;98716.70;;;11.98;89.57
64628;BME280;59036;50.960;0.314;2022-09-09T06:01:16;98722.98;;;11.96;87.46
64628;BME280;59036;50.960;0.314;2022-09-09T06:03:45;98725.49;;;12.28;87.68
64628;BME280;59036;50.960;0.314;2022-09-09T06:06:14;98728.82;;;12.34;88.37
64628;BME280;59036;50.960;0.314;2022-09-09T06:08:43;98725.02;;;12.84;85.22
64628;BME280;59036;50.960;0.314;2022-09-09T06:11:11;98725.34;;;11.97;88.97
64628;BME280;59036;50.960;0.314;2022-09-09T06:13:39;98725.35;;;12.95;84.98
64628;BME280;59036;50.960;0.314;2022-09-09T06:16:09;98729.92;;;12.41;85.20
64628;BME280;59036;50.960;0.314;2022-09-09T06:18:37;98731.96;;;12.87;85.69
64628;BME280;59036;50.960;0.314;2022-09-09T06:21:07;98734.58;;;12.37;86.96
64628;BME280;59036;50.960;0.314;2022-09-09T06:23:34;98733.50;;;12.85;84.46
64628;BME280;59036;50.960;0.314;2022-09-09T06:26:02;98738.05;;;12.39;85.47
64628;BME280;59036;50.960;0.314;2022-09-09T06:28:30;98740.08;;;12.18;86.14
64628;BME280;59036;50.960;0.314;2022-09-09T06:30:58;98741.62;;;12.50;85.97
64628;BME280;59036;50.960;0.314;2022-09-09T06:33:26;98747.44;;;12.29;87.08
64628;BME280;59036;50.960;0.314;2022-09-09T06:35:54;98748.35;;;12.62;86.42
64628;BME280;59036;50.960;0.314;2022-09-09T06:38:21;98752.33;;;12.56;86.05
64628;BME280;59036;50.960;0.314;2022-09-09T06:40:51;98758.57;;;12.17;86.65
64628;BME280;59036;50.960;0.314;2022-09-09T06:43:19;98760.95;;;12.88;84.46
64628;BME280;59036;50.960;0.314;2022-09-09T06:45:53;98767.66;;;12.97;84.45
64628;BME280;59036;50.960;0.314;2022-09-09T06:48:21;98771.98;;;12.67;84.34
64628;BME280;59036;50.960;0.314;2022-09-09T06:50:48;98775.89;;;12.58;86.42
64628;BME280;59036;50.960;0.314;2022-09-09T06:53:16;98775.17;;;12.56;86.45
64628;BME280;59036;50.960;0.314;2022-09-09T06:55:43;98775.64;;;13.57;83.70
64628;BME280;59036;50.960;0.314;2022-09-09T06:58:10;98777.15;;;12.67;86.66
64628;BME280;59036;50.960;0.314;2022-09-09T07:00:37;98779.89;;;12.86;85.46
64628;BME280;59036;50.960;0.314;2022-09-09T07:03:04;98783.25;;;12.90;85.02
64628;BME280;59036;50.960;0.314;2022-09-09T07:05:31;98789.23;;;12.50;86.16
64628;BME280;59036;50.960;0.314;2022-09-09T07:07:58;98788.92;;;12.73;85.47
64628;BME280;59036;50.960;0.314;2022-09-09T07:10:25;98792.39;;;13.07;85.40
64628;BME280;59036;50.960;0.314;2022-09-09T07:12:53;98798.75;;;12.49;87.70
64628;BME280;59036;50.960;0.314;2022-09-09T07:15:20;98800.71;;;12.53;86.48
64628;BME280;59036;50.960;0.314;2022-09-09T07:17:47;98800.51;;;12.79;85.27
64628;BME280;59036;50.960;0.314;2022-09-09T07:20:15;98800.04;;;12.89;85.22
64628;BME280;59036;50.960;0.314;2022-09-09T07:22:42;98809.64;;;12.68;85.36
64628;BME280;59036;50.960;0.314;2022-09-09T07:25:09;98807.83;;;12.65;85.08
64628;BME280;59036;50.960;0.314;2022-09-09T07:27:35;98813.72;;;13.49;83.06
64628;BME280;59036;50.960;0.314;2022-09-09T07:30:03;98818.32;;;13.35;83.31
64628;BME280;59036;50.960;0.314;2022-09-09T07:32:31;98822.11;;;12.64;84.82
64628;BME280;59036;50.960;0.314;2022-09-09T07:34:57;98827.76;;;12.52;86.61
64628;BME280;59036;50.960;0.314;2022-09-09T07:37:24;98832.70;;;12.19;88.03
64628;BME280;59036;50.960;0.314;2022-09-09T07:39:52;98833.18;;;12.19;88.49
64628;BME280;59036;50.960;0.314;2022-09-09T07:42:19;98836.38;;;12.10;88.74
64628;BME280;59036;50.960;0.314;2022-09-09T07:44:46;98842.27;;;12.62;86.85
64628;BME280;59036;50.960;0.314;2022-09-09T07:47:12;98840.69;;;13.33;85.56
64628;BME280;59036;50.960;0.314;2022-09-09T07:49:40;98843.82;;;12.18;88.57
64628;BME280;59036;50.960;0.314;2022-09-09T07:52:06;98848.77;;;12.75;85.16
64628;BME280;59036;50.960;0.314;2022-09-09T07:54:34;98850.05;;;12.88;85.25
64628;BME280;59036;50.960;0.314;2022-09-09T07:57:01;98847.32;;;13.22;85.02
64628;BME280;59036;50.960;0.314;2022-09-09T07:59:28;98849.34;;;13.78;82.92
64628;BME280;59036;50.960;0.314;2022-09-09T08:01:55;98848.06;;;13.17;82.86
64628;BME280;59036;50.960;0.314;2022-09-09T08:04:23;98851.65;;;13.37;82.42
64628;BME280;59036;50.960;0.314;2022-09-09T08:06:53;98852.87;;;12.92;83.96
64628;BME280;59036;50.960;0.314;2022-09-09T08:09:21;98856.35;;;12.74;85.02
64628;BME280;59036;50.960;0.314;2022-09-09T08:11:48;98856.59;;;13.02;85.02
64628;BME280;59036;50.960;0.314;2022-09-09T08:14:15;98860.34;;;13.44;84.13
64628;BME280;59036;50.960;0.314;2022-09-09T08:16:43;98863.50;;;12.15;87.39
64628;BME280;59036;50.960;0.314;2022-09-09T08:19:11;98865.30;;;13.14;83.97
64628;BME280;59036;50.960;0.314;2022-09-09T08:21:40;98868.38;;;12.36;87.95
64628;BME280;59036;50.960;0.314;2022-09-09T08:24:09;98872.48;;;12.90;86.28
64628;BME280;59036;50.960;0.314;2022-09-09T08:26:37;98879.56;;;12.67;86.42
64628;BME280;59036;50.960;0.314;2022-09-09T08:29:06;98884.46;;;13.30;85.43
64628;BME280;59036;50.960;0.314;2022-09-09T08:31:34;98885.68;;;12.22;87.87
64628;BME280;59036;50.960;0.314;2022-09-09T08:34:02;98891.79;;;12.33;87.60
64628;BME280;59036;50.960;0.314;2022-09-09T08:36:31;98896.58;;;13.05;85.69
64628;BME280;59036;50.960;0.314;2022-09-09T08:38:58;98898.04;;;12.31;87.25
64628;BME280;59036;50.960;0.314;2022-09-09T08:41:39;98903.66;;;13.33;85.39
64628;BME280;59036;50.960;0.314;2022-09-09T08:44:14;98904.84;;;12.63;86.34
64628;BME280;59036;50.960;0.314;2022-09-09T08:46:53;98906.76;;;12.60;87.82
64628;BME280;59036;50.960;0.314;2022-09-09T08:49:44;98912.03;;;13.59;84.37
64628;BME280;59036;50.960;0.314;2022-09-09T08:52:18;98913.07;;;12.95;86.10
64628;BME280;59036;50.960;0.314;2022-09-09T08:54:47;98917.38;;;13.27;85.62
64628;BME280;59036;50.960;0.314;2022-09-09T08:57:20;98920.89;;;13.69;84.53
64628;BME280;59036;50.960;0.314;2022-09-09T08:59:49;98921.36;;;13.41;84.22
64628;BME280;59036;50.960;0.314;2022-09-09T09:02:19;98927.91;;;13.29;84.79
64628;BME280;59036;50.960;0.314;2022-09-09T09:05:00;98927.75;;;13.22;84.90
64628;BME280;59036;50.960;0.314;2022-09-09T09:07:41;98932.85;;;13.24;85.42
64628;BME280;59036;50.960;0.314;2022-09-09T09:10:18;98939.63;;;13.58;84.37
64628;BME280;59036;50.960;0.314;2022-09-09T09:12:48;98944.51;;;13.76;83.81
64628;BME280;59036;50.960;0.314;2022-09-09T09:15:19;98943.90;;;13.17;83.60
64628;BME280;59036;50.960;0.314;2022-09-09T09:17:48;98948.52;;;13.35;83.78
64628;BME280;59036;50.960;0.314;2022-09-09T09:20:16;98954.77;;;13.71;83.60
64628;BME280;59036;50.960;0.314;2022-09-09T09:22:48;98957.99;;;13.85;81.25
64628;BME280;59036;50.960;0.314;2022-09-09T09:25:20;98962.41;;;14.06;81.82
64628;BME280;59036;50.960;0.314;2022-09-09T09:27:53;98962.60;;;13.82;81.36
64628;BME280;59036;50.960;0.314;2022-09-09T09:30:26;98965.60;;;14.28;78.91
64628;BME280;59036;50.960;0.314;2022-09-09T09:33:02;98971.24;;;13.67;81.22
64628;BME280;59036;50.960;0.314;2022-09-09T09:35:29;98971.88;;;13.84;81.71
64628;BME280;59036;50.960;0.314;2022-09-09T09:37:56;98974.34;;;14.04;81.45
64628;BME280;59036;50.960;0.314;2022-09-09T09:40:24;98975.38;;;13.84;80.66
64628;BME280;59036;50.960;0.314;2022-09-09T09:42:52;98978.17;;;14.03;79.77
64628;BME280;59036;50.960;0.314;2022-09-09T09:45:28;98982.68;;;14.61;79.48
64628;BME280;59036;50.960;0.314;2022-09-09T09:48:01;98982.99;;;13.91;79.68
64628;BME280;59036;50.960;0.314;2022-09-09T09:50:29;98982.62;;;14.42;78.36
64628;BME280;59036;50.960;0.314;2022-09-09T09:52:58;98988.69;;;13.87;78.31
64628;BME280;59036;50.960;0.314;2022-09-09T09:55:29;98991.78;;;14.38;78.04
64628;BME280;59036;50.960;0.314;2022-09-09T09:58:02;98992.01;;;13.84;78.73
64628;BME280;59036;50.960;0.314;2022-09-09T10:00:30;98992.20;;;14.01;79.68
64628;BME280;59036;50.960;0.314;2022-09-09T10:02:56;98995.48;;;13.95;80.57
64628;BME280;59036;50.960;0.314;2022-09-09T10:05:27;98996.69;;;13.46;80.19
64628;BME280;59036;50.960;0.314;2022-09-09T10:08:04;98999.73;;;13.86;80.43
64628;BME280;59036;50.960;0.314;2022-09-09T10:10:40;99001.88;;;14.45;79.16
64628;BME280;59036;50.960;0.314;2022-09-09T10:13:15;99005.24;;;14.69;78.68
64628;BME280;59036;50.960;0.314;2022-09-09T10:15:52;99007.53;;;14.23;78.24
64628;BME280;59036;50.960;0.314;2022-09-09T10:18:38;99011.51;;;13.51;81.51
64628;BME280;59036;50.960;0.314;2022-09-09T10:21:19;99018.09;;;14.12;81.04
64628;BME280;59036;50.960;0.314;2022-09-09T10:23:58;99018.20;;;14.78;79.86
64628;BME280;59036;50.960;0.314;2022-09-09T10:26:38;99025.24;;;14.24;79.66
64628;BME280;59036;50.960;0.314;2022-09-09T10:29:23;99026.82;;;13.63;80.59
64628;BME280;59036;50.960;0.314;2022-09-09T10:32:05;99031.13;;;14.16;79.85
64628;BME280;59036;50.960;0.314;2022-09-09T10:34:53;99034.93;;;12.96;84.64
64628;BME280;59036;50.960;0.314;2022-09-09T10:37:41;99036.53;;;12.85;86.33
64628;BME280;59036;50.960;0.314;2022-09-09T10:40:23;99040.62;;;12.88;84.53
64628;BME280;59036;50.960;0.314;2022-09-09T10:42:56;99041.05;;;13.38;83.10
64628;BME280;59036;50.960;0.314;2022-09-09T10:45:30;99045.05;;;13.42;84.00
64628;BME280;59036;50.960;0.314;2022-09-09T10:48:14;99049.14;;;13.98;80.83
64628;BME280;59036;50.960;0.314;2022-09-09T10:50:54;99047.46;;;14.32;79.09
64628;BME280;59036;50.960;0.314;2022-09-09T10:53:35;99054.52;;;14.13;79.77
64628;BME280;59036;50.960;0.314;2022-09-09T10:56:07;99056.31;;;14.10;79.66
64628;BME280;59036;50.960;0.314;2022-09-09T10:58:39;99057.42;;;14.01;79.56
64628;BME280;59036;50.960;0.314;2022-09-09T11:01:15;99054.57;;;14.35;78.85
64628;BME280;59036;50.960;0.314;2022-09-09T11:03:43;99055.07;;;13.93;80.19
64628;BME280;59036;50.960;0.314;2022-09-09T11:06:17;99059.14;;;13.95;80.34
64628;BME280;59036;50.960;0.314;2022-09-09T11:08:45;99059.32;;;13.50;80.96
64628;BME280;59036;50.960;0.314;2022-09-09T11:11:17;99062.03;;;13.77;81.17
64628;BME280;59036;50.960;0.314;2022-09-09T11:13:49;99068.19;;;13.60;81.07
64628;BME280;59036;50.960;0.314;2022-09-09T11:16:24;99064.72;;;14.14;79.76
64628;BME280;59036;50.960;0.314;2022-09-09T11:18:57;99065.51;;;14.10;79.75
64628;BME280;59036;50.960;0.314;2022-09-09T11:21:27;99063.46;;;13.91;80.25
64628;BME280;59036;50.960;0.314;2022-09-09T11:23:59;99065.05;;;14.38;77.99
64628;BME280;59036;50.960;0.314;2022-09-09T11:26:32;99068.02;;;14.55;78.17
64628;BME280;59036;50.960;0.314;2022-09-09T11:29:16;99068.05;;;14.38;79.07
64628;BME280;59036;50.960;0.314;2022-09-09T11:32:01;99066.16;;;15.45;76.19
64628;BME280;59036;50.960;0.314;2022-09-09T11:34:44;99065.54;;;16.11;74.18
64628;BME280;59036;50.960;0.314;2022-09-09T11:37:37;99064.40;;;16.02;71.06
64628;BME280;59036;50.960;0.314;2022-09-09T11:40:17;99070.13;;;15.42;73.31
64628;BME280;59036;50.960;0.314;2022-09-09T11:42:46;99068.40;;;15.31;73.71
64628;BME280;59036;50.960;0.314;2022-09-09T11:45:22;99062.85;;;15.90;71.89
64628;BME280;59036;50.960;0.314;2022-09-09T11:47:53;99058.50;;;16.16;70.79
64628;BME280;59036;50.960;0.314;2022-09-09T11:50:41;99057.35;;;16.49;69.59
64628;BME280;59036;50.960;0.314;2022-09-09T11:53:23;99058.57;;;16.13;69.59
64628;BME280;59036;50.960;0.314;2022-09-09T11:56:10;99062.00;;;15.21;70.96
64628;BME280;59036;50.960;0.314;2022-09-09T11:58:41;99068.26;;;14.96;71.19
64628;BME280;59036;50.960;0.314;2022-09-09T12:01:27;99067.09;;;15.64;70.65
64628;BME280;59036;50.960;0.314;2022-09-09T12:04:06;99066.18;;;16.21;70.31
64628;BME280;59036;50.960;0.314;2022-09-09T12:06:43;99062.98;;;16.56;66.97
64628;BME280;59036;50.960;0.314;2022-09-09T12:09:19;99064.06;;;15.96;68.91
64628;BME280;59036;50.960;0.314;2022-09-09T12:11:48;99065.36;;;16.07;67.19
64628;BME280;59036;50.960;0.314;2022-09-09T12:14:34;99069.55;;;15.54;68.58
64628;BME280;59036;50.960;0.314;2022-09-09T12:17:15;99070.54;;;16.03;68.57
64628;BME280;59036;50.960;0.314;2022-09-09T12:19:45;99074.06;;;16.13;67.50
64628;BME280;59036;50.960;0.314;2022-09-09T12:22:19;99074.75;;;16.61;65.87
64628;BME280;59036;50.960;0.314;2022-09-09T12:24:54;99073.38;;;17.05;66.44
64628;BME280;59036;50.960;0.314;2022-09-09T12:27:27;99086.48;;;15.93;69.07
64628;BME280;59036;50.960;0.314;2022-09-09T12:30:01;99084.05;;;14.41;75.42
64628;BME280;59036;50.960;0.314;2022-09-09T12:32:30;99078.89;;;14.52;76.26
64628;BME280;59036;50.960;0.314;2022-09-09T12:34:59;99080.35;;;15.13;75.03
64628;BME280;59036;50.960;0.314;2022-09-09T12:37:32;99082.25;;;14.24;76.97
64628;BME280;59036;50.960;0.314;2022-09-09T12:40:04;99085.23;;;13.65;79.71
64628;BME280;59036;50.960;0.314;2022-09-09T12:42:31;99083.32;;;13.91;80.21
64628;BME280;59036;50.960;0.314;2022-09-09T12:44:59;99086.26;;;14.05;79.78
64628;BME280;59036;50.960;0.314;2022-09-09T12:47:36;99085.77;;;15.47;78.03
64628;BME280;59036;50.960;0.314;2022-09-09T12:50:15;99086.63;;;15.96;75.42
64628;BME280;59036;50.960;0.314;2022-09-09T12:52:43;99085.70;;;15.61;73.11
64628;BME280;59036;50.960;0.314;2022-09-09T12:55:17;99089.47;;;14.84;74.50
64628;BME280;59036;50.960;0.314;2022-09-09T12:57:45;99090.27;;;14.78;71.68
64628;BME280;59036;50.960;0.314;2022-09-09T13:00:16;99086.89;;;15.34;72.04
64628;BME280;59036;50.960;0.314;2022-09-09T13:02:49;99080.01;;;15.56;71.09
64628;BME280;59036;50.960;0.314;2022-09-09T13:05:21;99086.39;;;15.31;71.78
64628;BME280;59036;50.960;0.314;2022-09-09T13:07:49;99079.20;;;16.71;69.20
64628;BME280;59036;50.960;0.314;2022-09-09T13:10:23;99083.63;;;15.82;69.77
64628;BME280;59036;50.960;0.314;2022-09-09T13:12:53;99082.64;;;15.66;70.19
64628;BME280;59036;50.960;0.314;2022-09-09T13:15:22;99079.56;;;15.83;68.47
64628;BME280;59036;50.960;0.314;2022-09-09T13:17:53;99080.53;;;16.25;68.37
64628;BME280;59036;50.960;0.314;2022-09-09T13:20:22;99079.80;;;16.06;68.85